Tiempo atmosférico en la estación meteorológica de Cañamero, Cáceres (590 m.)



Fecha
DESCASC
Temp. máxima en grados centígrados (hora)
DESCASC
Temp. mínima en grados centígrados (hora)
DESCASC
Temp. media en grados centígrados
DESCASC
Racha de viento máxima en m/sg (hora)
DESCASC
Velocidad máxima media en intervalos de 10 minutos(hora)
DESCASC
Precipitaciones diarias en mm
DESCASC
Precipitaciones de 00:00 a 06:00 en mm
DESCASC
Precipitaciones de 06:00 a 12:00 en mm
DESCASC
Precipitaciones de 12:00 a 18:00 en mm
DESCASC
Precipitaciones de 18:00 a 24:00 en mm
DESCASC
19-05-2019 20.7 (17:20) 7 (07:10) 13.9 8.89 (17:20) 4.72 (17:50) 0 0 0 0 0
18-05-2019 18.1 (16:50) 7.4 (07:20) 12.8 10.28 (10:00) 5.56 (10:00) 0 0 0 0 0
17-05-2019 18.5 (18:50) 7.6 (07:00) 13 13.06 (00:50) 8.06 (03:40) 0 0 0 0 0
16-05-2019 26.4 (17:00) 13 (00:00) 19.7 15 (18:00) 10 (18:10) 0 0 0 0 0
15-05-2019 31.6 (18:10) 13.5 (00:00) 22.6 5.83 (17:30) 3.06 (17:10) 0 0 0 0 0
14-05-2019 29.6 (18:30) 16.7 (00:00) 23.2 8.33 (17:40) 3.61 (19:20) 0 0 0 0 0
13-05-2019 31.1 (18:40) 15.3 (00:00) 23.2 6.67 (09:50) 3.33 (16:40) 0 0 0 0 0
12-05-2019 28.2 (18:50) 15.2 (00:00) 21.7 10.83 (11:10) 4.72 (09:50) 0 0 0 0 0
11-05-2019 28 (18:40) 11.3 (00:00) 19.7 5.56 (02:20) 3.33 (02:30) 0 0 0 0 0
10-05-2019 22.5 (18:40) 13.4 (00:00) 17.9 8.61 (18:00) 5 (18:50) 0 0 0 0 0
09-05-2019 18.5 (16:40) 11.6 (00:00) 15.1 10 (18:20) 6.39 (17:20) 1.8 0 0 0.6 1.2
08-05-2019 15.6 (00:00) 12.9 (00:00) 14.3 11.67 (17:00) 6.94 (17:00) 4.4 0 1.2 2.2 1
07-05-2019 21.2 (17:10) 8.7 (00:00) 15 9.17 (17:00) 6.11 (18:10) 0 0 0 0 0
06-05-2019 22.2 (17:40) 11 (00:00) 16.6 8.61 (16:40) 5 (18:20) 0 0 0 0 0
05-05-2019 24.4 (18:50) 10.5 (00:00) 17.4 8.89 (14:50) 5.28 (14:40) 0 0 0 0 0
04-05-2019 23.3 (18:40) 10 (00:00) 16.6 7.78 (16:10) 3.61 (17:30) 0 0 0 0 0
03-05-2019 24.5 (18:10) 14.5 (00:00) 19.5 9.44 (17:00) 5.28 (16:50) 0 0 0 0 0
02-05-2019 26.3 (19:10) 14.4 (07:20) 20.3 7.78 (09:20) 3.61 (07:30) 0 0 0 0 0
01-05-2019 26 (18:40) 13.2 (00:00) 19.6 7.22 (21:30) 3.89 (21:30) 0 0 0 0 0
30-04-2019 26.3 (18:30) 12.4 (00:00) 19.3 6.67 (18:10) 4.17 (17:10) 0 0 0 0 0
29-04-2019 25.7 (19:30) 14.1 (00:00) 19.9 6.94 (17:30) 3.33 (17:30) 0 0 0 0 0
28-04-2019 25.9 (18:20) 13.2 (00:00) 19.5 6.94 (12:30) 3.33 (10:50) 0 0 0 0 0
27-04-2019 22.6 (19:10) 8.3 (00:00) 15.5 5.83 (11:10) 2.5 (09:50) 0 0 0 0 0
26-04-2019 17.2 (18:50) 5.7 (00:00) 11.5 7.5 (01:40) 4.72 (11:10) 0 0 0 0 0
25-04-2019 12.3 (19:10) 7.3 (00:00) 9.8 17.78 (00:30) 10.83 (00:40) 7.6 4.6 0.2 2.8 0
24-04-2019 13 (16:10) 5.3 (00:00) 9.2 16.11 (13:30) 10.56 (12:40) 22 0.2 6.8 6.2 8.8

Gráficas

Temp. máximas Temp. mínimas Temp. medias Precipitaciones Rachas de viento máximas Velocidades máximas media en intervalos de 10 minutos

Datos horarios

Fecha y hora oficial Temperatura (ºC) Velocidad del viento (km/h) Dirección del viento Racha (km/h) Dirección de racha Precipitación (mm) Presión (hPa) Tendencia (hPa) Humedad (%)
2019-05-23 23:00:00 -- -- -- -- -- -- -- -- --
2019-05-23 22:00:00 -- -- -- -- -- -- -- -- --
2019-05-23 21:00:00 -- -- -- -- -- -- -- -- --
2019-05-23 20:00:00 25.8 13 Sudoeste 29 Sudoeste 0 -- -- 27
2019-05-23 19:00:00 27.3 17 Oeste 33 Oeste 0 -- -- 24
2019-05-23 18:00:00 27.5 19 Oeste 37 Oeste 0 -- -- 25
2019-05-23 17:00:00 26.9 22 Oeste 35 Oeste 0 -- -- 28
2019-05-23 16:00:00 27.1 21 Sudoeste 39 Oeste 0 -- -- 33
2019-05-23 15:00:00 26.3 19 Oeste 33 Oeste 0 -- -- 37
2019-05-23 14:00:00 25.5 18 Oeste 31 Oeste 0 -- -- 37
2019-05-23 13:00:00 24.7 14 Sudoeste 23 Sudoeste 0 -- -- 41
2019-05-23 12:00:00 23.1 6 Oeste 16 Sudoeste 0 -- -- 47
2019-05-23 11:00:00 20.3 5 Oeste 12 Oeste 0 -- -- 63
2019-05-23 10:00:00 19.3 4 Sudoeste 9 Sudoeste 0 -- -- 65
2019-05-23 09:00:00 16.7 0 Calma 5 Sudeste 0 -- -- 76
2019-05-23 08:00:00 14.8 2 Sudeste 5 Sudeste 0 -- -- 76
2019-05-23 07:00:00 15.4 5 Sudeste 8 Noroeste 0 -- -- 71
2019-05-23 06:00:00 16.1 5 Noroeste 9 Noroeste 0 -- -- 69
2019-05-23 05:00:00 16.3 3 Sur 8 Sudoeste 0 -- -- 65
2019-05-23 04:00:00 18.4 3 Norte 13 Noroeste 0 -- -- 56
2019-05-23 03:00:00 19.1 5 Norte 13 Noroeste 0 -- -- 50
2019-05-23 02:00:00 19.7 5 Noroeste 14 Norte 0 -- -- 47
2019-05-23 01:00:00 18 2 Norte 6 Norte 0 -- -- 48
2019-05-23 00:00:00 17.7 3 Norte 4 Norte 0 -- -- 46
2019-05-22 23:00:00 18.4 2 Nordeste 4 Nordeste 0 -- -- 47
2019-05-22 22:00:00 21.4 0 Calma 4 Sudoeste 0 -- -- 39
2019-05-22 21:00:00 26.1 2 Sudoeste 14 Oeste 0 -- -- 30
2019-05-22 20:00:00 27.1 6 Oeste 16 Oeste 0 -- -- 28
2019-05-22 19:00:00 27.1 11 Sudoeste 20 Sur 0 -- -- 28
2019-05-22 18:00:00 27.3 12 Oeste 22 Sudoeste 0 -- -- 29
2019-05-22 17:00:00 26.8 7 Sudoeste 21 Oeste 0 -- -- 33
2019-05-22 16:00:00 26.8 10 Oeste 23 Oeste 0 -- -- 31
2019-05-22 15:00:00 26.6 6 Sur 26 Norte 0 -- -- 32
2019-05-22 14:00:00 25.6 8 Sudoeste 21 Sudoeste 0 -- -- 31
2019-05-22 13:00:00 24.5 9 Sudoeste 21 Sudoeste 0 -- -- 33
2019-05-22 12:00:00 23.8 7 Sudoeste 18 Sur 0 -- -- 38
2019-05-22 11:00:00 22.6 4 Sudoeste 8 Sur 0 -- -- 42
2019-05-22 10:00:00 20.8 3 Este 7 Sudeste 0 -- -- 48
2019-05-22 09:00:00 16.2 0 Calma 5 Sudeste 0 -- -- 63
2019-05-22 08:00:00 13.2 3 Sudeste 8 Sur 0 -- -- 69
2019-05-22 07:00:00 11.4 0 Calma 4 Nordeste 0 -- -- 82
2019-05-22 06:00:00 13 0 Calma 7 Sudoeste 0 -- -- 75
2019-05-22 05:00:00 15.5 3 Nordeste 10 Norte 0 -- -- 65
2019-05-22 04:00:00 15.7 8 Norte 13 Norte 0 -- -- 66
2019-05-22 03:00:00 15.2 6 Norte 9 Norte 0 -- -- 58
2019-05-22 02:00:00 14.1 0 Calma 6 Oeste 0 -- -- 61
2019-05-22 01:00:00 15.5 0 Calma 4 Oeste 0 -- -- 56
2019-05-22 00:00:00 17.1 4 Oeste 8 Noroeste 0 -- -- 51
2019-05-21 23:00:00 18.1 3 Oeste 12 Sudoeste 0 -- -- 46
2019-05-21 22:00:00 20 8 Sudoeste 15 Oeste 0 -- -- 41
2019-05-21 21:00:00 23.4 6 Oeste 14 Noroeste 0 -- -- 32
2019-05-21 20:00:00 24.9 8 Oeste 20 Noroeste 0 -- -- 31
2019-05-21 19:00:00 23.4 10 Sudoeste 23 Sudoeste 0 -- -- 34
2019-05-21 18:00:00 25 8 Sudoeste 25 Sudoeste 0 -- -- 32
2019-05-21 17:00:00 24.1 8 Oeste 25 Oeste 0 -- -- 34
2019-05-21 16:00:00 22.6 9 Noroeste 25 Oeste 0 -- -- 37
2019-05-21 15:00:00 23.2 9 Sudoeste 29 Sudoeste 0 -- -- 38
2019-05-21 14:00:00 21.9 6 Noroeste 24 Sudoeste 0 -- -- 42
2019-05-21 13:00:00 20.4 10 Oeste 22 Oeste 0 -- -- 44
2019-05-21 12:00:00 18.5 9 Sudoeste 19 Sudoeste 0 -- -- 51
2019-05-21 11:00:00 16.5 11 Sudoeste 16 Oeste 0 -- -- 58
2019-05-21 10:00:00 14.6 9 Sudoeste 14 Sudoeste 0 -- -- 64
2019-05-21 09:00:00 12 7 Sudoeste 10 Sudoeste 0 -- -- 73
2019-05-21 08:00:00 10.1 3 Sudoeste 6 Sudoeste 0 -- -- 75
2019-05-21 07:00:00 10.8 0 Calma 9 Norte 0 -- -- 63
2019-05-21 06:00:00 12.5 5 Norte 11 Noroeste 0 -- -- 56
2019-05-21 05:00:00 12.6 7 Noroeste 10 Noroeste 0 -- -- 55
2019-05-21 04:00:00 14.2 6 Noroeste 10 Noroeste 0 -- -- 51
2019-05-21 03:00:00 14.8 7 Noroeste 12 Noroeste 0 -- -- 48
2019-05-21 02:00:00 15.3 5 Norte 14 Norte 0 -- -- 46
2019-05-21 01:00:00 16.7 9 Noroeste 17 Noroeste 0 -- -- 41
2019-05-21 00:00:00 16 6 Noroeste 11 Noroeste 0 -- -- 44
2019-05-20 23:00:00 17.8 2 Oeste 5 Oeste 0 -- -- 41
2019-05-20 22:00:00 18.7 0 Calma 10 Norte 0 -- -- 40
2019-05-20 21:00:00 20 8 Noroeste 18 Noroeste 0 -- -- 35
2019-05-20 20:00:00 21.1 5 Oeste 15 Oeste 0 -- -- 36
2019-05-20 19:00:00 22.2 10 Sudoeste 23 Sudoeste 0 -- -- 32
2019-05-20 18:00:00 20.7 9 Sudoeste 24 Sudoeste 0 -- -- 36
2019-05-20 17:00:00 21.9 17 Sudoeste 32 Sudoeste 0 -- -- 33
2019-05-20 16:00:00 20 10 Sudoeste 18 Sudoeste 0 -- -- 36
2019-05-20 15:00:00 19.6 10 Sudoeste 21 Sudoeste 0 -- -- 37
2019-05-20 14:00:00 20.2 7 Oeste 23 Sudoeste 0 -- -- 38
2019-05-20 13:00:00 18.9 7 Oeste 15 Sudoeste 0 -- -- 41
2019-05-20 12:00:00 17.1 5 Sudoeste 17 Sudoeste 0 -- -- 45
2019-05-20 11:00:00 15.6 9 Sudoeste 12 Sudoeste 0 -- -- 53
2019-05-20 10:00:00 13.5 3 Sur 9 Sur 0 -- -- 60
2019-05-20 09:00:00 10.5 3 Sur 6 Sudoeste 0 -- -- 74
2019-05-20 08:00:00 8.1 2 Sudeste 6 Sudeste 0 -- -- 81
2019-05-20 07:00:00 7.4 0 Calma 6 Sudeste 0 -- -- 81
2019-05-20 06:00:00 8.8 3 Sudeste 6 Sudeste 0 -- -- 75
2019-05-20 05:00:00 8.7 2 Sudeste 6 Sur 0 -- -- 67
2019-05-20 04:00:00 8.5 0 Calma 4 Sudeste 0 -- -- 67
2019-05-20 03:00:00 9.6 0 Calma 5 Oeste 0 -- -- 60
2019-05-20 02:00:00 10.8 0 Calma 5 Sudoeste 0 -- -- 54
2019-05-20 01:00:00 11.2 6 Sudoeste 14 Oeste 0 -- -- 51
2019-05-20 00:00:00 12.5 3 Norte 6 Norte 0 -- -- 53
2019-05-19 23:00:00 13.9 4 Norte 9 Oeste 0 -- -- 44
2019-05-19 22:00:00 15.9 4 Oeste 12 Oeste 0 -- -- 38
2019-05-19 21:00:00 17.7 5 Oeste 16 Noroeste 0 -- -- 35
2019-05-19 20:00:00 19.3 9 Noroeste 26 Oeste 0 -- -- 30
2019-05-19 19:00:00 20.3 13 Oeste 28 Oeste 0 -- -- 31
2019-05-19 18:00:00 20.1 14 Noroeste 32 Noroeste 0 -- -- 30
2019-05-19 17:00:00 20.6 15 Noroeste 27 Oeste 0 -- -- 27
2019-05-19 16:00:00 20.2 12 Noroeste 31 Oeste 0 -- -- 30
2019-05-19 15:00:00 19.3 8 Noroeste 31 Noroeste 0 -- -- 34
2019-05-19 14:00:00 18.2 11 Noroeste 28 Sudoeste 0 -- -- 36
2019-05-19 13:00:00 16.4 12 Oeste 32 Sudoeste 0 -- -- 43
2019-05-19 12:00:00 15.6 9 Sudoeste 22 Oeste 0 -- -- 52
2019-05-19 11:00:00 14.1 4 Sudoeste 11 Oeste 0 -- -- 53
2019-05-19 10:00:00 11.7 5 Oeste 10 Oeste 0 -- -- 63
2019-05-19 09:00:00 9.4 5 Sudoeste 10 Sudoeste 0 -- -- 73
2019-05-19 08:00:00 7.4 6 Oeste 13 Oeste 0 -- -- 79
2019-05-19 07:00:00 7.2 4 Oeste 8 Norte 0 -- -- 74
2019-05-19 06:00:00 8.8 6 Noroeste 15 Noroeste 0 -- -- 68
2019-05-19 05:00:00 9.7 5 Noroeste 19 Norte 0 -- -- 63
2019-05-19 04:00:00 10.3 10 Noroeste 17 Noroeste 0 -- -- 60
2019-05-19 03:00:00 10.9 7 Noroeste 24 Norte 0 -- -- 56
2019-05-19 02:00:00 11.7 13 Oeste 26 Norte 0 -- -- 50
2019-05-19 01:00:00 11.6 6 Oeste 14 Noroeste 0 -- -- 48
2019-05-19 00:00:00 12.3 10 Noroeste 21 Noroeste 0 -- -- 46
2019-05-18 23:00:00 12.4 8 Oeste 17 Oeste 0 -- -- 45
2019-05-18 22:00:00 13.5 8 Oeste 24 Noroeste 0 -- -- 41
2019-05-18 21:00:00 15.8 10 Noroeste 23 Noroeste 0 -- -- 35
2019-05-18 20:00:00 17.6 14 Noroeste 29 Noroeste 0 -- -- 32
2019-05-18 19:00:00 18 17 Noroeste 31 Oeste 0 -- -- 32
2019-05-18 18:00:00 18.1 17 Oeste 33 Oeste 0 -- -- 32
2019-05-18 17:00:00 17.8 14 Noroeste 35 Oeste 0 -- -- 36
2019-05-18 16:00:00 17.7 13 Norte 31 Noroeste 0 -- -- 38
2019-05-18 15:00:00 16.8 14 Noroeste 28 Noroeste 0 -- -- 37
2019-05-18 14:00:00 15.5 13 Noroeste 32 Noroeste 0 -- -- 40
2019-05-18 13:00:00 14.6 17 Noroeste 33 Noroeste 0 -- -- 46
2019-05-18 12:00:00 13.6 14 Noroeste 27 Noroeste 0 -- -- 45
2019-05-18 11:00:00 12.3 14 Noroeste 31 Noroeste 0 -- -- 47
2019-05-18 10:00:00 10.7 20 Noroeste 37 Noroeste 0 -- -- 51
2019-05-18 09:00:00 9.5 17 Noroeste 24 Noroeste 0 -- -- 58
2019-05-18 08:00:00 8.7 15 Noroeste 26 Noroeste 0 -- -- 63
2019-05-18 07:00:00 8.2 4 Norte 21 Noroeste 0 -- -- 66
2019-05-18 06:00:00 8.9 7 Norte 18 Noroeste 0 -- -- 66
2019-05-18 05:00:00 9.5 4 Norte 20 Norte 0 -- -- 65
2019-05-18 04:00:00 10.1 5 Norte 24 Norte 0 -- -- 64
2019-05-18 03:00:00 10.9 13 Norte 26 Noroeste 0 -- -- 61
2019-05-18 02:00:00 11.5 11 Noroeste 25 Noroeste 0 -- -- 58
2019-05-18 01:00:00 11.9 9 Noroeste 19 Noroeste 0 -- -- 55
2019-05-18 00:00:00 12.5 8 Noroeste 15 Noroeste 0 -- -- 52
2019-05-17 23:00:00 12.7 8 Oeste 16 Oeste 0 -- -- 48
2019-05-17 22:00:00 14.1 10 Oeste 26 Oeste 0 -- -- 44
2019-05-17 21:00:00 16.1 14 Oeste 31 Oeste 0 -- -- 39
2019-05-17 20:00:00 17.9 15 Noroeste 32 Noroeste 0 -- -- 35
2019-05-17 19:00:00 18.5 19 Oeste 32 Oeste 0 -- -- 36
2019-05-17 18:00:00 17.1 14 Noroeste 32 Noroeste 0 -- -- 41
2019-05-17 17:00:00 17.6 21 Oeste 39 Oeste 0 -- -- 39
2019-05-17 16:00:00 17.4 15 Noroeste 37 Noroeste 0 -- -- 44
2019-05-17 15:00:00 16.3 16 Noroeste 35 Norte 0 -- -- 47
2019-05-17 14:00:00 15.6 16 Noroeste 32 Noroeste 0 -- -- 48
2019-05-17 13:00:00 14.4 16 Norte 29 Noroeste 0 -- -- 52
2019-05-17 12:00:00 13.2 14 Norte 28 Oeste 0 -- -- 53
2019-05-17 11:00:00 11.8 17 Oeste 34 Oeste 0 -- -- 57
2019-05-17 10:00:00 11.2 15 Noroeste 32 Noroeste 0 -- -- 58
2019-05-17 09:00:00 9.8 13 Oeste 32 Oeste 0 -- -- 64
2019-05-17 08:00:00 8.3 12 Noroeste 27 Noroeste 0 -- -- 68
2019-05-17 07:00:00 7.6 10 Oeste 32 Noroeste 0 -- -- 72
2019-05-17 06:00:00 8.6 17 Noroeste 31 Noroeste 0 -- -- 68
2019-05-17 05:00:00 9.1 12 Noroeste 45 Noroeste 0 -- -- 68
2019-05-17 04:00:00 10.1 26 Norte 46 Norte 0 -- -- 66
2019-05-17 03:00:00 10.8 24 Noroeste 46 Noroeste 0 -- -- 64
2019-05-17 02:00:00 11.4 26 Noroeste 44 Norte 0 -- -- 62
2019-05-17 01:00:00 12.5 22 Noroeste 47 Noroeste 0 -- -- 58
2019-05-17 00:00:00 13.9 18 Noroeste 39 Noroeste 0 -- -- 57
2019-05-16 23:00:00 15.1 21 Oeste 43 Oeste 0 -- -- 58
2019-05-16 22:00:00 16.7 22 Oeste 44 Oeste 0 -- -- 53
2019-05-16 21:00:00 19.6 28 Oeste 46 Oeste 0 -- -- 47
2019-05-16 20:00:00 22.6 27 Oeste 49 Oeste 0 -- -- 34
2019-05-16 19:00:00 24.1 34 Oeste 53 Sudoeste 0 -- -- 39
2019-05-16 18:00:00 26 31 Sudoeste 54 Sudoeste 0 -- -- 38
2019-05-16 17:00:00 26.4 25 Sudoeste 49 Oeste 0 -- -- 34
2019-05-16 16:00:00 25.8 26 Sudoeste 39 Sudoeste 0 -- -- 36
2019-05-16 15:00:00 25 18 Oeste 32 Sudoeste 0 -- -- 45
2019-05-16 14:00:00 24 17 Sudoeste 30 Sudoeste 0 -- -- 50
2019-05-16 13:00:00 22.1 10 Oeste 25 Sudoeste 0 -- -- 55
2019-05-16 12:00:00 21.1 10 Sudoeste 20 Oeste 0 -- -- 60
2019-05-16 11:00:00 20 9 Sudoeste 12 Sudoeste 0 -- -- 60
2019-05-16 10:00:00 18.4 3 Sudoeste 6 Oeste 0 -- -- 64
2019-05-16 09:00:00 14.9 0 Calma 3 Sudoeste 0 -- -- 76
2019-05-16 08:00:00 13.2 2 Sudoeste 4 Sudoeste 0 -- -- 79
2019-05-16 07:00:00 13.6 0 Calma 3 Sur 0 -- -- 79
2019-05-16 06:00:00 14.8 0 Calma 3 Sur 0 -- -- 78
2019-05-16 05:00:00 15.3 0 Calma 3 Sur 0 -- -- 74
2019-05-16 04:00:00 17.7 2 Sur 5 Sudeste 0 -- -- 61
2019-05-16 03:00:00 19.7 0 Calma 9 Norte 0 -- -- 48
2019-05-16 02:00:00 20.5 3 Noroeste 13 Noroeste 0 -- -- 47
2019-05-16 01:00:00 21.6 6 Noroeste 17 Oeste 0 -- -- 38
2019-05-16 00:00:00 19.9 2 Oeste 5 Sudoeste 0 -- -- 52
2019-05-15 23:00:00 21.6 3 Oeste 11 Sudoeste 0 -- -- 39
2019-05-15 22:00:00 24.1 3 Nordeste 10 Noroeste 0 -- -- 40
2019-05-15 21:00:00 29.1 5 Oeste 10 Oeste 0 -- -- 30
2019-05-15 20:00:00 30.6 8 Oeste 17 Noroeste 0 -- -- 25
2019-05-15 19:00:00 30.3 10 Noroeste 19 Oeste 0 -- -- 27
2019-05-15 18:00:00 30.8 6 Oeste 21 Noroeste 0 -- -- 27
2019-05-15 17:00:00 30.8 6 Sudoeste 20 Oeste 0 -- -- 24
2019-05-15 16:00:00 30.2 9 Sudoeste 17 Oeste 0 -- -- 30
2019-05-15 15:00:00 29.6 5 Sudeste 12 Norte 0 -- -- 31
2019-05-15 14:00:00 27.7 6 Noroeste 14 Oeste 0 -- -- 38
2019-05-15 13:00:00 25.7 6 Oeste 12 Noroeste 0 -- -- 43
2019-05-15 12:00:00 24.3 5 Sudoeste 11 Oeste 0 -- -- 43
2019-05-15 11:00:00 22.6 3 Oeste 9 Sudoeste 0 -- -- 41
2019-05-15 10:00:00 20.7 5 Sudoeste 10 Sudoeste 0 -- -- 53
2019-05-15 09:00:00 16.8 3 Sur 6 Sur 0 -- -- 66
2019-05-15 08:00:00 14.4 0 Calma 3 Sudeste 0 -- -- 65
2019-05-15 07:00:00 13.8 2 Sudeste 4 Sur 0 -- -- 64
2019-05-15 06:00:00 14.8 2 Sur 5 Sur 0 -- -- 60
2019-05-15 05:00:00 15.1 2 Sudoeste 4 Oeste 0 -- -- 57
2019-05-15 04:00:00 15.7 0 Calma 8 Sudoeste 0 -- -- 56
2019-05-15 03:00:00 17.1 0 Calma 9 Sudoeste 0 -- -- 49
2019-05-15 02:00:00 19 2 Norte 8 Norte 0 -- -- 44
2019-05-15 01:00:00 22.2 5 Norte 15 Norte 0 -- -- 33
2019-05-15 00:00:00 22.4 7 Norte 11 Norte 0 -- -- 32
2019-05-14 23:00:00 21.2 4 Norte 6 Noroeste 0 -- -- 40
2019-05-14 22:00:00 23.9 5 Noroeste 8 Oeste 0 -- -- 36
2019-05-14 21:00:00 27.6 7 Oeste 14 Oeste 0 -- -- 32
2019-05-14 20:00:00 29.4 6 Oeste 20 Oeste 0 -- -- 29
2019-05-14 19:00:00 29.6 9 Oeste 24 Oeste 0 -- -- 29
2019-05-14 18:00:00 29.5 4 Sudoeste 30 Oeste 0 -- -- 33
2019-05-14 17:00:00 28.6 9 Oeste 21 Sudoeste 0 -- -- 32
2019-05-14 16:00:00 28 7 Oeste 17 Oeste 0 -- -- 36
2019-05-14 15:00:00 26.7 6 Oeste 15 Oeste 0 -- -- 34
2019-05-14 14:00:00 25.8 5 Sudoeste 11 Sudoeste 0 -- -- 37
2019-05-14 13:00:00 24.3 5 Oeste 13 Sudeste 0 -- -- 44
2019-05-14 12:00:00 23.9 3 Este 15 Sudeste 0 -- -- 47
2019-05-14 11:00:00 22.3 5 Este 16 Este 0 -- -- 42
2019-05-14 10:00:00 20.8 8 Este 16 Sudeste 0 -- -- 43
2019-05-14 09:00:00 18.1 6 Este 17 Nordeste 0 -- -- 47
2019-05-14 08:00:00 16.7 9 Este 18 Nordeste 0 -- -- 45
2019-05-14 07:00:00 17 7 Este 17 Este 0 -- -- 38
2019-05-14 06:00:00 17.6 7 Este 20 Nordeste 0 -- -- 37
2019-05-14 05:00:00 18.9 8 Este 18 Nordeste 0 -- -- 33
2019-05-14 04:00:00 18.3 4 Este 10 Nordeste 0 -- -- 37
2019-05-14 03:00:00 18.8 5 Este 13 Sudeste 0 -- -- 36
2019-05-14 02:00:00 21.5 6 Este 13 Este 0 -- -- 29
2019-05-14 01:00:00 21.5 5 Este 13 Este 0 -- -- 29
2019-05-14 00:00:00 22.1 8 Este 13 Nordeste 0 -- -- 26
2019-05-13 23:00:00 22.5 9 Nordeste 14 Este 0 -- -- 26
2019-05-13 22:00:00 23.4 4 Nordeste 8 Nordeste 0 -- -- 28
2019-05-13 21:00:00 28.3 5 Nordeste 13 Nordeste 0 -- -- 25
2019-05-13 20:00:00 30.2 8 Nordeste 15 Nordeste 0 -- -- 19
2019-05-13 19:00:00 30.7 8 Norte 19 Norte 0 -- -- 23
2019-05-13 18:00:00 30.7 10 Nordeste 23 Nordeste 0 -- -- 20
2019-05-13 17:00:00 30.3 8 Nordeste 21 Nordeste 0 -- -- 18
2019-05-13 16:00:00 29.2 8 Oeste 15 Oeste 0 -- -- 28
2019-05-13 15:00:00 28.2 7 Sudoeste 13 Oeste 0 -- -- 29
2019-05-13 14:00:00 26.9 6 Oeste 14 Norte 0 -- -- 29
2019-05-13 13:00:00 26.1 5 Nordeste 15 Sudeste 0 -- -- 25
2019-05-13 12:00:00 24.9 7 Este 21 Este 0 -- -- 24
2019-05-13 11:00:00 23.2 7 Este 21 Este 0 -- -- 24
2019-05-13 10:00:00 20.6 8 Este 24 Este 0 -- -- 27
2019-05-13 09:00:00 17.3 9 Este 24 Sudeste 0 -- -- 30
2019-05-13 08:00:00 15.6 5 Este 14 Este 0 -- -- 30
2019-05-13 07:00:00 15.7 4 Este 14 Este 0 -- -- 29
2019-05-13 06:00:00 16 5 Este 16 Sudeste 0 -- -- 27
2019-05-13 05:00:00 16.7 4 Este 13 Este 0 -- -- 25
2019-05-13 04:00:00 17.3 3 Este 10 Este 0 -- -- 22
2019-05-13 03:00:00 16.9 0 Calma 9 Este 0 -- -- 24
2019-05-13 02:00:00 18.5 2 Este 12 Este 0 -- -- 21
2019-05-13 01:00:00 18.7 4 Nordeste 15 Nordeste 0 -- -- 21
2019-05-13 00:00:00 18.1 3 Este 12 Nordeste 0 -- -- 22
2019-05-12 23:00:00 19 5 Nordeste 10 Nordeste 0 -- -- 23
2019-05-12 22:00:00 21.7 6 Nordeste 12 Nordeste 0 -- -- 23
2019-05-12 21:00:00 25.8 6 Nordeste 13 Este 0 -- -- 23
2019-05-12 20:00:00 28.1 6 Nordeste 17 Este 0 -- -- 19
2019-05-12 19:00:00 28 10 Nordeste 18 Nordeste 0 -- -- 21
2019-05-12 18:00:00 28 9 Nordeste 23 Nordeste 0 -- -- 22
2019-05-12 17:00:00 27.6 9 Nordeste 23 Nordeste 0 -- -- 27
2019-05-12 16:00:00 27.2 8 Nordeste 21 Nordeste 0 -- -- 28
2019-05-12 15:00:00 27 6 Este 23 Este 0 -- -- 28
2019-05-12 14:00:00 25.7 10 Este 25 Este 0 -- -- 31
2019-05-12 13:00:00 24.1 13 Este 28 Nordeste 0 -- -- 35
2019-05-12 12:00:00 23.3 11 Este 39 Este 0 -- -- 34
2019-05-12 11:00:00 22.1 13 Este 34 Nordeste 0 -- -- 33
2019-05-12 10:00:00 20.7 13 Este 34 Este 0 -- -- 29
2019-05-12 09:00:00 17.8 15 Nordeste 29 Este 0 -- -- 34
2019-05-12 08:00:00 15.4 10 Este 28 Este 0 -- -- 45
2019-05-12 07:00:00 15.7 11 Este 28 Nordeste 0 -- -- 42
2019-05-12 06:00:00 15.8 10 Este 30 Este 0 -- -- 46
2019-05-12 05:00:00 16.5 12 Este 28 Este 0 -- -- 43
2019-05-12 04:00:00 17.2 9 Este 24 Este 0 -- -- 40
2019-05-12 03:00:00 18.6 9 Este 23 Este 0 -- -- 36
2019-05-12 02:00:00 20 12 Este 22 Este 0 -- -- 34
2019-05-12 01:00:00 20.4 11 Nordeste 20 Este 0 -- -- 39
2019-05-12 00:00:00 21.3 10 Nordeste 19 Nordeste 0 -- -- 44
2019-05-11 23:00:00 21.5 9 Nordeste 17 Nordeste 0 -- -- 42
2019-05-11 22:00:00 22 8 Nordeste 14 Nordeste 0 -- -- 39
2019-05-11 21:00:00 25 9 Nordeste 15 Nordeste 0 -- -- 34
2019-05-11 20:00:00 27.4 7 Nordeste 14 Norte 0 -- -- 28
2019-05-11 19:00:00 27.7 6 Noroeste 14 Norte 0 -- -- 35
2019-05-11 18:00:00 27.3 5 Noroeste 18 Noroeste 0 -- -- 37
2019-05-11 17:00:00 26.6 9 Norte 17 Noroeste 0 -- -- 43
2019-05-11 16:00:00 25.8 8 Oeste 17 Oeste 0 -- -- 45
2019-05-11 15:00:00 25.1 4 Nordeste 11 Oeste 0 -- -- 44
2019-05-11 14:00:00 23.9 5 Este 16 Sudoeste 0 -- -- 51
2019-05-11 13:00:00 22.3 6 Noroeste 15 Oeste 0 -- -- 56
2019-05-11 12:00:00 21.3 3 Norte 12 Oeste 0 -- -- 54
2019-05-11 11:00:00 19.1 3 Oeste 10 Noroeste 0 -- -- 72
2019-05-11 10:00:00 17.5 3 Sur 8 Sur 0 -- -- 73
2019-05-11 09:00:00 13.4 0 Calma 5 Sur 0 -- -- 87
2019-05-11 08:00:00 11.8 3 Sur 6 Sudeste 0 -- -- 87
2019-05-11 07:00:00 11.5 3 Este 6 Este 0 -- -- 87
2019-05-11 06:00:00 12.3 0 Calma 8 Nordeste 0 -- -- 81
2019-05-11 05:00:00 13.9 4 Norte 12 Noroeste 0 -- -- 74
2019-05-11 04:00:00 14.6 6 Noroeste 17 Noroeste 0 -- -- 72
2019-05-11 03:00:00 15.1 8 Noroeste 20 Noroeste 0 -- -- 71
2019-05-11 02:00:00 15.3 5 Noroeste 13 Noroeste 0 -- -- 67
2019-05-11 01:00:00 15.4 7 Noroeste 10 Noroeste 0 -- -- 72
2019-05-11 00:00:00 16.2 2 Noroeste 13 Oeste 0 -- -- 74
2019-05-10 23:00:00 17.2 9 Oeste 15 Oeste 0 -- -- 73
2019-05-10 22:00:00 18.1 6 Oeste 14 Oeste 0 -- -- 72
2019-05-10 21:00:00 20.2 11 Oeste 22 Oeste 0 -- -- 66
2019-05-10 20:00:00 21.7 14 Oeste 28 Oeste 0 -- -- 61
2019-05-10 19:00:00 22.2 15 Oeste 29 Oeste 0 -- -- 60
2019-05-10 18:00:00 22.1 18 Oeste 31 Oeste 0 -- -- 61
2019-05-10 17:00:00 21.5 9 Oeste 22 Oeste 0 -- -- 65
2019-05-10 16:00:00 20.9 13 Oeste 25 Oeste 0 -- -- 65
2019-05-10 15:00:00 20.2 12 Oeste 22 Oeste 0 -- -- 66
2019-05-10 14:00:00 19.4 10 Oeste 22 Sudoeste 0 -- -- 69
2019-05-10 13:00:00 18.4 12 Sudoeste 22 Sudoeste 0 -- -- 73
2019-05-10 12:00:00 17.3 13 Oeste 23 Sudoeste 0 -- -- 79
2019-05-10 11:00:00 15.8 10 Oeste 15 Oeste 0 -- -- 87
2019-05-10 10:00:00 14.6 9 Oeste 13 Sudoeste 0 -- -- 94
2019-05-10 09:00:00 13.7 9 Oeste 15 Sudoeste 0 -- -- 96
2019-05-10 08:00:00 13.5 9 Sudoeste 16 Oeste 0 -- -- 98
2019-05-10 07:00:00 13.4 9 Oeste 18 Oeste 0 -- -- 97
2019-05-10 06:00:00 13.5 10 Oeste 15 Sudoeste 0 -- -- 96
2019-05-10 05:00:00 13.6 7 Sudoeste 17 Sudoeste 0 -- -- 96
2019-05-10 04:00:00 13.7 12 Oeste 19 Oeste 0 -- -- 96
2019-05-10 03:00:00 13.8 14 Sudoeste 20 Sudoeste 0 -- -- 97
2019-05-10 02:00:00 14 4 Sur 12 Oeste 0 -- -- 96
2019-05-10 01:00:00 14.5 8 Oeste 18 Oeste 0 -- -- 95
2019-05-10 00:00:00 14.5 9 Oeste 16 Oeste 0 -- -- 94
2019-05-09 23:00:00 15.5 13 Oeste 20 Oeste 0 -- -- 92
2019-05-09 22:00:00 16.1 10 Sudoeste 19 Oeste 0 -- -- 92
2019-05-09 21:00:00 16.2 15 Oeste 32 Oeste 0.6 -- -- 92
2019-05-09 20:00:00 16.9 7 Noroeste 24 Oeste 0 -- -- 91
2019-05-09 19:00:00 17 14 Oeste 36 Oeste 0.6 -- -- 92
2019-05-09 18:00:00 17.7 18 Oeste 33 Oeste 0.6 -- -- 88
2019-05-09 17:00:00 18.4 19 Oeste 30 Oeste 0 -- -- 80
2019-05-09 16:00:00 17.7 7 Oeste 23 Sudoeste 0 -- -- 84
2019-05-09 15:00:00 16.3 10 Oeste 27 Oeste 0 -- -- 86
2019-05-09 14:00:00 16.3 17 Oeste 31 Sudoeste 0 -- -- 86
2019-05-09 13:00:00 15.7 18 Oeste 29 Oeste 0 -- -- 87
2019-05-09 12:00:00 15 14 Oeste 22 Oeste 0 -- -- 91
2019-05-09 11:00:00 13.4 11 Oeste 17 Oeste 0 -- -- 96
2019-05-09 10:00:00 12.7 9 Sudoeste 13 Sudoeste 0 -- -- 98
2019-05-09 09:00:00 11.7 8 Oeste 17 Oeste 0 -- -- 99
2019-05-09 08:00:00 11.6 10 Oeste 15 Oeste 0 -- -- 99
2019-05-09 07:00:00 11.7 12 Sudoeste 17 Sudoeste 0 -- -- 99
2019-05-09 06:00:00 12 9 Sudoeste 18 Sudoeste 0 -- -- 99
2019-05-09 05:00:00 12.2 10 Sudoeste 17 Sudoeste 0 -- -- 99
2019-05-09 04:00:00 12.4 7 Oeste 15 Sudoeste 0 -- -- 99
2019-05-09 03:00:00 12.5 9 Sudoeste 15 Oeste 0 -- -- 99
2019-05-09 02:00:00 12.6 9 Oeste 18 Oeste 0 -- -- 99
2019-05-09 01:00:00 12.8 11 Sudoeste 21 Sudoeste 0 -- -- 99
2019-05-09 00:00:00 13.1 13 Sudoeste 26 Oeste 0 -- -- 99
2019-05-08 23:00:00 13.5 15 Oeste 25 Oeste 0 -- -- 98
2019-05-08 22:00:00 14 16 Oeste 28 Oeste 0.2 -- -- 98
2019-05-08 21:00:00 14 17 Oeste 26 Sudoeste 0.6 -- -- 98
2019-05-08 20:00:00 14 14 Sudoeste 24 Sudoeste 0 -- -- 97
2019-05-08 19:00:00 14.2 13 Oeste 28 Oeste 0.2 -- -- 97
2019-05-08 18:00:00 14.4 19 Oeste 32 Oeste 1 -- -- 96
2019-05-08 17:00:00 14.6 25 Oeste 42 Oeste 0.8 -- -- 91
2019-05-08 16:00:00 14.6 17 Oeste 38 Sudoeste 0.2 -- -- 90
2019-05-08 15:00:00 15.1 23 Oeste 36 Oeste 0 -- -- 84
2019-05-08 14:00:00 14.4 19 Oeste 37 Sudoeste 0 -- -- 87
2019-05-08 13:00:00 13.8 23 Oeste 35 Oeste 0.2 -- -- 93
2019-05-08 12:00:00 13.8 19 Oeste 31 Oeste 0.6 -- -- 94
2019-05-08 11:00:00 13.7 21 Oeste 35 Oeste 0 -- -- 92
2019-05-08 10:00:00 13.5 20 Sudoeste 37 Oeste 0 -- -- 97
2019-05-08 09:00:00 13.1 17 Oeste 28 Sudoeste 0 -- -- 98
2019-05-08 08:00:00 12.9 15 Oeste 30 Sudoeste 0.4 -- -- 97
2019-05-08 07:00:00 13.1 18 Oeste 28 Oeste 0.2 -- -- 95
2019-05-08 06:00:00 13.5 14 Oeste 27 Sudoeste 0 -- -- 93
2019-05-08 05:00:00 13.7 13 Sudoeste 22 Oeste 0 -- -- 93
2019-05-08 04:00:00 13.8 15 Oeste 24 Oeste 0 -- -- 91
2019-05-08 03:00:00 14.3 15 Oeste 23 Oeste 0 -- -- 89
2019-05-08 02:00:00 14.2 9 Oeste 19 Oeste 0 -- -- 88
2019-05-08 01:00:00 14.6 12 Oeste 18 Oeste 0 -- -- 86
2019-05-08 00:00:00 15.6 12 Oeste 19 Oeste 0 -- -- 80
2019-05-07 23:00:00 16.2 12 Oeste 19 Oeste 0 -- -- 78
2019-05-07 22:00:00 16.8 11 Oeste 21 Oeste 0 -- -- 73
2019-05-07 21:00:00 18 11 Oeste 21 Oeste 0 -- -- 68
2019-05-07 20:00:00 18.7 14 Oeste 28 Oeste 0 -- -- 65
2019-05-07 19:00:00 20.4 18 Oeste 32 Oeste 0 -- -- 61
2019-05-07 18:00:00 20.5 21 Oeste 33 Oeste 0 -- -- 59
2019-05-07 17:00:00 21.1 18 Oeste 33 Sudoeste 0 -- -- 54
2019-05-07 16:00:00 20.6 15 Oeste 29 Oeste 0 -- -- 60
2019-05-07 15:00:00 19.3 15 Sudoeste 25 Oeste 0 -- -- 62
2019-05-07 14:00:00 18.1 11 Oeste 22 Sudoeste 0 -- -- 66
2019-05-07 13:00:00 16.7 10 Oeste 18 Oeste 0 -- -- 68
2019-05-07 12:00:00 15.3 8 Oeste 16 Sudoeste 0 -- -- 73
2019-05-07 11:00:00 13 7 Sudoeste 13 Noroeste 0 -- -- 82
2019-05-07 10:00:00 11.3 4 Sudoeste 14 Sudoeste 0 -- -- 91
2019-05-07 09:00:00 10.4 11 Sudoeste 14 Sudoeste 0 -- -- 92
2019-05-07 08:00:00 8.9 0 Calma 3 Sur 0 -- -- 93
2019-05-07 07:00:00 8.9 0 Calma 6 Sudoeste 0 -- -- 91
2019-05-07 06:00:00 9.7 3 Sudoeste 5 Sur 0 -- -- 89
2019-05-07 05:00:00 10.4 5 Sudoeste 10 Sudoeste 0 -- -- 85
2019-05-07 04:00:00 10.2 2 Sudoeste 6 Sudoeste 0 -- -- 85
2019-05-07 03:00:00 11.2 0 Calma 10 Sudoeste 0 -- -- 81
2019-05-07 02:00:00 12 2 Sur 15 Oeste 0 -- -- 78
2019-05-07 01:00:00 12.8 12 Sudoeste 14 Sudoeste 0 -- -- 75
2019-05-07 00:00:00 13.9 8 Sudoeste 14 Oeste 0 -- -- 70
2019-05-06 23:00:00 15.2 10 Oeste 15 Oeste 0 -- -- 64
2019-05-06 22:00:00 16.3 6 Oeste 18 Oeste 0 -- -- 56
2019-05-06 21:00:00 18.5 11 Oeste 27 Oeste 0 -- -- 48
2019-05-06 20:00:00 21 18 Sudoeste 30 Oeste 0 -- -- 45
2019-05-06 19:00:00 22 15 Oeste 28 Sudoeste 0 -- -- 43
2019-05-06 18:00:00 22.2 13 Sudoeste 29 Oeste 0 -- -- 40
2019-05-06 17:00:00 21.7 15 Oeste 31 Sudoeste 0 -- -- 40
2019-05-06 16:00:00 20.9 14 Oeste 30 Sudoeste 0 -- -- 44
2019-05-06 15:00:00 20.1 13 Sudoeste 26 Sudoeste 0 -- -- 54
2019-05-06 14:00:00 19.1 13 Oeste 22 Oeste 0 -- -- 61
2019-05-06 13:00:00 17.7 12 Oeste 18 Sudoeste 0 -- -- 71
2019-05-06 12:00:00 15.3 10 Oeste 16 Oeste 0 -- -- 79
2019-05-06 11:00:00 12.6 5 Sudoeste 12 Oeste 0 -- -- 94
2019-05-06 10:00:00 11.3 8 Sudoeste 15 Oeste 0 -- -- 96
2019-05-06 09:00:00 11.5 7 Oeste 12 Oeste 0 -- -- 95
2019-05-06 08:00:00 11.2 5 Sudoeste 9 Sudoeste 0 -- -- 93
2019-05-06 07:00:00 11.5 3 Sudoeste 8 Sudoeste 0 -- -- 84
2019-05-06 06:00:00 12.6 4 Sur 8 Oeste 0 -- -- 71
2019-05-06 05:00:00 14.2 3 Sur 6 Sudoeste 0 -- -- 69
2019-05-06 04:00:00 15.8 3 Norte 14 Norte 0 -- -- 62
2019-05-06 03:00:00 14.6 3 Noroeste 14 Sudoeste 0 -- -- 65
2019-05-06 02:00:00 15.4 4 Noroeste 9 Oeste 0 -- -- 57
2019-05-06 01:00:00 17 5 Oeste 12 Noroeste 0 -- -- 51
2019-05-06 00:00:00 17.8 2 Norte 13 Oeste 0 -- -- 48
2019-05-05 23:00:00 17 2 Sudoeste 23 Oeste 0 -- -- 49
2019-05-05 22:00:00 19.5 4 Nordeste 10 Noroeste 0 -- -- 42
2019-05-05 21:00:00 22.1 3 Noroeste 17 Noroeste 0 -- -- 36
2019-05-05 20:00:00 23.9 9 Noroeste 20 Noroeste 0 -- -- 36
2019-05-05 19:00:00 24.2 10 Noroeste 26 Noroeste 0 -- -- 35
2019-05-05 18:00:00 24.2 14 Noroeste 26 Oeste 0 -- -- 36
2019-05-05 17:00:00 24 15 Noroeste 28 Noroeste 0 -- -- 38
2019-05-05 16:00:00 23.7 15 Noroeste 30 Oeste 0 -- -- 38
2019-05-05 15:00:00 23.4 14 Oeste 32 Sudoeste 0 -- -- 45
2019-05-05 14:00:00 22.2 11 Oeste 20 Sudoeste 0 -- -- 50
2019-05-05 13:00:00 20.7 11 Sudoeste 19 Sudoeste 0 -- -- 51
2019-05-05 12:00:00 19.6 4 Noroeste 12 Oeste 0 -- -- 61
2019-05-05 11:00:00 18.8 4 Nordeste 13 Este 0 -- -- 55
2019-05-05 10:00:00 16.8 3 Sudeste 8 Sur 0 -- -- 69
2019-05-05 09:00:00 12.8 3 Sudeste 6 Sudeste 0 -- -- 87
2019-05-05 08:00:00 10.6 3 Sudeste 5 Sur 0 -- -- 85
2019-05-05 07:00:00 10.7 3 Sudeste 6 Sur 0 -- -- 74
2019-05-05 06:00:00 10.7 0 Calma 4 Sudoeste 0 -- -- 69
2019-05-05 05:00:00 11.9 0 Calma 7 Sudoeste 0 -- -- 64
2019-05-05 04:00:00 13.7 0 Calma 4 Sur 0 -- -- 57
2019-05-05 03:00:00 13.9 3 Noroeste 6 Norte 0 -- -- 58
2019-05-05 02:00:00 14.1 2 Nordeste 6 Norte 0 -- -- 63
2019-05-05 01:00:00 14.7 4 Norte 5 Noroeste 0 -- -- 58
2019-05-05 00:00:00 16.2 4 Norte 10 Norte 0 -- -- 51
2019-05-04 23:00:00 16 3 Norte 6 Noroeste 0 -- -- 50
2019-05-04 22:00:00 18.6 0 Calma 7 Noroeste 0 -- -- 44
2019-05-04 21:00:00 21.5 4 Oeste 19 Noroeste 0 -- -- 37
2019-05-04 20:00:00 22.6 12 Oeste 22 Oeste 0 -- -- 32
2019-05-04 19:00:00 23.2 11 Oeste 24 Oeste 0 -- -- 34
2019-05-04 18:00:00 23.1 10 Sudoeste 24 Sudoeste 0 -- -- 34
2019-05-04 17:00:00 22.8 9 Sudoeste 28 Oeste 0 -- -- 37
2019-05-04 16:00:00 21.7 10 Sudoeste 26 Noroeste 0 -- -- 40
2019-05-04 15:00:00 21.3 12 Sudoeste 20 Oeste 0 -- -- 39
2019-05-04 14:00:00 20.3 8 Oeste 17 Sudoeste 0 -- -- 36
2019-05-04 13:00:00 19.8 4 Noroeste 10 Oeste 0 -- -- 42
2019-05-04 12:00:00 18.6 4 Este 13 Nordeste 0 -- -- 41
2019-05-04 11:00:00 17.4 6 Este 17 Nordeste 0 -- -- 48
2019-05-04 10:00:00 15.3 7 Este 18 Este 0 -- -- 52
2019-05-04 09:00:00 12.4 6 Este 18 Nordeste 0 -- -- 57
2019-05-04 08:00:00 10.4 7 Este 13 Nordeste 0 -- -- 60
2019-05-04 07:00:00 10.2 6 Nordeste 14 Nordeste 0 -- -- 61
2019-05-04 06:00:00 10.8 4 Nordeste 12 Nordeste 0 -- -- 59
2019-05-04 05:00:00 11.3 4 Este 19 Sudeste 0 -- -- 58
2019-05-04 04:00:00 12 6 Este 14 Este 0 -- -- 55
2019-05-04 03:00:00 12.7 5 Este 18 Este 0 -- -- 51
2019-05-04 02:00:00 13.1 6 Este 17 Sudeste 0 -- -- 50
2019-05-04 01:00:00 14.2 7 Este 24 Este 0 -- -- 47
2019-05-04 00:00:00 15.1 8 Este 22 Este 0 -- -- 44
2019-05-03 23:00:00 15.9 6 Este 23 Este 0 -- -- 41
2019-05-03 22:00:00 17.6 10 Nordeste 25 Nordeste 0 -- -- 39
2019-05-03 21:00:00 20.8 4 Norte 27 Noroeste 0 -- -- 31
2019-05-03 20:00:00 22.5 13 Noroeste 30 Noroeste 0 -- -- 30
2019-05-03 19:00:00 23.6 17 Noroeste 32 Noroeste 0 -- -- 33
2019-05-03 18:00:00 24.3 7 Noroeste 30 Noroeste 0 -- -- 38
2019-05-03 17:00:00 24.2 18 Noroeste 34 Noroeste 0 -- -- 36
2019-05-03 16:00:00 24 16 Noroeste 31 Noroeste 0 -- -- 38
2019-05-03 15:00:00 23.7 15 Noroeste 31 Noroeste 0 -- -- 44
2019-05-03 14:00:00 22.6 12 Oeste 22 Oeste 0 -- -- 57
2019-05-03 13:00:00 21.5 12 Sudoeste 22 Sudoeste 0 -- -- 62
2019-05-03 12:00:00 20.4 6 Sudoeste 15 Sudoeste 0 -- -- 58
2019-05-03 11:00:00 19 9 Sudoeste 16 Sudoeste 0 -- -- 69
2019-05-03 10:00:00 19.2 3 Sudoeste 8 Nordeste 0 -- -- 60
2019-05-03 09:00:00 15.8 3 Este 9 Sudeste 0 -- -- 69
2019-05-03 08:00:00 14.5 0 Calma 14 Nordeste 0 -- -- 70
2019-05-03 07:00:00 14.9 8 Nordeste 13 Este 0 -- -- 69
2019-05-03 06:00:00 14.7 0 Calma 7 Este 0 -- -- 68
2019-05-03 05:00:00 16.2 3 Este 14 Este 0 -- -- 59
2019-05-03 04:00:00 18.4 10 Nordeste 18 Nordeste 0 -- -- 50
2019-05-03 03:00:00 18.5 9 Nordeste 19 Nordeste 0 -- -- 53
2019-05-03 02:00:00 17.1 6 Este 13 Este 0 -- -- 59
2019-05-03 01:00:00 17.5 4 Nordeste 7 Nordeste 0 -- -- 61
2019-05-03 00:00:00 18.7 5 Nordeste 9 Nordeste 0 -- -- 52
2019-05-02 23:00:00 19.3 7 Norte 12 Norte 0 -- -- 51
2019-05-02 22:00:00 20.4 5 Norte 8 Nordeste 0 -- -- 49
2019-05-02 21:00:00 23.9 4 Noroeste 12 Oeste 0 -- -- 46
2019-05-02 20:00:00 25.7 5 Oeste 11 Nordeste 0 -- -- 41
2019-05-02 19:00:00 26 4 Oeste 12 Noroeste 0 -- -- 40
2019-05-02 18:00:00 24.6 5 Oeste 11 Noroeste 0 -- -- 46
2019-05-02 17:00:00 24.8 7 Noroeste 15 Nordeste 0 -- -- 43
2019-05-02 16:00:00 24.8 6 Nordeste 19 Nordeste 0 -- -- 41
2019-05-02 15:00:00 25.2 7 Este 17 Este 0 -- -- 42
2019-05-02 14:00:00 24.4 7 Sudeste 18 Este 0 -- -- 45
2019-05-02 13:00:00 23.3 6 Este 21 Nordeste 0 -- -- 55
2019-05-02 12:00:00 22.4 7 Este 22 Este 0 -- -- 56
2019-05-02 11:00:00 20.5 7 Este 23 Nordeste 0 -- -- 62
2019-05-02 10:00:00 17.8 9 Este 28 Nordeste 0 -- -- 70
2019-05-02 09:00:00 16 12 Este 25 Nordeste 0 -- -- 71
2019-05-02 08:00:00 14.6 12 Este 24 Este 0 -- -- 73
2019-05-02 07:00:00 14.6 12 Este 21 Nordeste 0 -- -- 73
2019-05-02 06:00:00 14.9 9 Nordeste 22 Nordeste 0 -- -- 71
2019-05-02 05:00:00 15.2 8 Este 17 Nordeste 0 -- -- 70
2019-05-02 04:00:00 15.9 8 Este 21 Este 0 -- -- 68
2019-05-02 03:00:00 16.4 4 Este 14 Este 0 -- -- 64
2019-05-02 02:00:00 17.8 9 Nordeste 18 Este 0 -- -- 57
2019-05-02 01:00:00 16.8 10 Este 21 Este 0 -- -- 65
2019-05-02 00:00:00 17.7 4 Este 17 Este 0 -- -- 67
2019-05-01 23:00:00 18.2 4 Norte 22 Sur 0 -- -- 62
2019-05-01 22:00:00 20.2 13 Sudoeste 26 Sudoeste 0 -- -- 53
2019-05-01 21:00:00 22.5 5 Norte 8 Norte 0 -- -- 52
2019-05-01 20:00:00 25.2 4 Noroeste 12 Noroeste 0 -- -- 42
2019-05-01 19:00:00 25.8 8 Norte 17 Oeste 0 -- -- 40
2019-05-01 18:00:00 25.6 9 Oeste 15 Oeste 0 -- -- 42
2019-05-01 17:00:00 24.9 6 Norte 16 Noroeste 0 -- -- 47
2019-05-01 16:00:00 22.7 7 Norte 22 Nordeste 0 -- -- 50
2019-05-01 15:00:00 24.4 10 Oeste 20 Oeste 0 -- -- 43
2019-05-01 14:00:00 24.6 10 Sudoeste 17 Sudoeste 0 -- -- 49
2019-05-01 13:00:00 23.7 10 Oeste 15 Oeste 0 -- -- 52
2019-05-01 12:00:00 22.9 3 Noroeste 12 Oeste 0 -- -- 60
2019-05-01 11:00:00 21.3 4 Sudoeste 10 Sudoeste 0 -- -- 54
2019-05-01 10:00:00 19.8 3 Sur 6 Sudeste 0 -- -- 59
2019-05-01 09:00:00 16 0 Calma 6 Sudeste 0 -- -- 74
2019-05-01 08:00:00 13.7 2 Sudeste 5 Sudeste 0 -- -- 77
2019-05-01 07:00:00 13.9 3 Sudeste 6 Sudeste 0 -- -- 68
2019-05-01 06:00:00 14.8 4 Sudeste 8 Sudoeste 0 -- -- 66
2019-05-01 05:00:00 15.4 0 Calma 4 Nordeste 0 -- -- 69
2019-05-01 04:00:00 16.1 3 Este 6 Nordeste 0 -- -- 64
2019-05-01 03:00:00 15.5 3 Nordeste 14 Noroeste 0 -- -- 61
2019-05-01 02:00:00 17.4 4 Sudeste 12 Sur 0 -- -- 55
2019-05-01 01:00:00 17.9 5 Norte 8 Norte 0 -- -- 51
2019-05-01 00:00:00 18.2 4 Norte 8 Noroeste 0 -- -- 54
2019-04-30 23:00:00 20 5 Norte 8 Norte 0 -- -- 46
2019-04-30 22:00:00 21.2 3 Norte 8 Oeste 0 -- -- 48
2019-04-30 21:00:00 24.5 4 Noroeste 14 Oeste 0 -- -- 40
2019-04-30 20:00:00 25.9 8 Oeste 17 Oeste 0 -- -- 37
2019-04-30 19:00:00 26 8 Oeste 24 Oeste 0 -- -- 37
2019-04-30 18:00:00 25.9 9 Oeste 24 Sudoeste 0 -- -- 37
2019-04-30 17:00:00 26.1 10 Sudoeste 24 Oeste 0 -- -- 43
2019-04-30 16:00:00 25.2 13 Sudoeste 23 Sudoeste 0 -- -- 43
2019-04-30 15:00:00 24.5 12 Sudoeste 23 Oeste 0 -- -- 45
2019-04-30 14:00:00 23.7 11 Sudoeste 18 Sudoeste 0 -- -- 49
2019-04-30 13:00:00 23.4 9 Sudoeste 17 Sudoeste 0 -- -- 54
2019-04-30 12:00:00 22 5 Sudoeste 10 Sudoeste 0 -- -- 60
2019-04-30 11:00:00 20.9 5 Sudoeste 8 Sudoeste 0 -- -- 61
2019-04-30 10:00:00 18.9 4 Sudoeste 6 Sudoeste 0 -- -- 67
2019-04-30 09:00:00 15.3 2 Sudeste 5 Sudeste 0 -- -- 80
2019-04-30 08:00:00 13.2 4 Sudeste 6 Sudeste 0 -- -- 80
2019-04-30 07:00:00 12.5 3 Este 4 Nordeste 0 -- -- 78
2019-04-30 06:00:00 13.7 2 Sudeste 4 Sudoeste 0 -- -- 68
2019-04-30 05:00:00 14.8 2 Sudeste 4 Sudeste 0 -- -- 61
2019-04-30 04:00:00 15.8 4 Este 8 Este 0 -- -- 60
2019-04-30 03:00:00 16 3 Noroeste 7 Noroeste 0 -- -- 55
2019-04-30 02:00:00 16.3 0 Calma 8 Norte 0 -- -- 61
2019-04-30 01:00:00 18.7 3 Norte 11 Norte 0 -- -- 53
2019-04-30 00:00:00 19.1 6 Norte 9 Norte 0 -- -- 50
2019-04-29 23:00:00 18.4 3 Norte 8 Norte 0 -- -- 57
2019-04-29 22:00:00 20.4 3 Norte 9 Norte 0 -- -- 57
2019-04-29 21:00:00 23.7 5 Oeste 15 Sudoeste 0 -- -- 46
2019-04-29 20:00:00 25.4 10 Oeste 20 Oeste 0 -- -- 38
2019-04-29 19:00:00 25.3 10 Oeste 18 Sudoeste 0 -- -- 40
2019-04-29 18:00:00 24.9 10 Oeste 25 Oeste 0 -- -- 41
2019-04-29 17:00:00 24.6 6 Sudoeste 17 Noroeste 0 -- -- 43
2019-04-29 16:00:00 24.7 9 Oeste 19 Oeste 0 -- -- 41
2019-04-29 15:00:00 23.7 8 Sudoeste 20 Sudoeste 0 -- -- 44
2019-04-29 14:00:00 23.6 7 Sudoeste 17 Sudoeste 0 -- -- 45
2019-04-29 13:00:00 23.7 5 Sudoeste 11 Sur 0 -- -- 41
2019-04-29 12:00:00 23.1 4 Sudeste 13 Sur 0 -- -- 48
2019-04-29 11:00:00 22 6 Este 13 Sudeste 0 -- -- 44
2019-04-29 10:00:00 20 4 Este 10 Sudeste 0 -- -- 53
2019-04-29 09:00:00 16.1 4 Este 9 Este 0 -- -- 62
2019-04-29 08:00:00 14.1 3 Este 11 Este 0 -- -- 63
2019-04-29 07:00:00 15.1 3 Este 13 Nordeste 0 -- -- 54
2019-04-29 06:00:00 15.8 5 Este 12 Nordeste 0 -- -- 51
2019-04-29 05:00:00 15.9 6 Este 13 Nordeste 0 -- -- 52
2019-04-29 04:00:00 16 4 Este 12 Este 0 -- -- 52
2019-04-29 03:00:00 16.8 4 Este 12 Nordeste 0 -- -- 48
2019-04-29 02:00:00 17.9 6 Este 13 Este 0 -- -- 44
2019-04-29 01:00:00 18.1 6 Nordeste 9 Nordeste 0 -- -- 44
2019-04-29 00:00:00 18.2 5 Nordeste 10 Este 0 -- -- 45
2019-04-28 23:00:00 18.1 5 Nordeste 9 Nordeste 0 -- -- 49
2019-04-28 22:00:00 19.2 6 Noroeste 8 Norte 0 -- -- 54
2019-04-28 21:00:00 22.5 3 Oeste 8 Oeste 0 -- -- 46
2019-04-28 20:00:00 24.8 6 Oeste 13 Noroeste 0 -- -- 40
2019-04-28 19:00:00 24.4 8 Oeste 14 Noroeste 0 -- -- 41
2019-04-28 18:00:00 25.4 5 Sudoeste 12 Norte 0 -- -- 40
2019-04-28 17:00:00 24.8 4 Nordeste 16 Nordeste 0 -- -- 39
2019-04-28 16:00:00 25 5 Sudeste 16 Nordeste 0 -- -- 41
2019-04-28 15:00:00 23.6 9 Nordeste 19 Nordeste 0 -- -- 41
2019-04-28 14:00:00 22.8 8 Este 22 Nordeste 0 -- -- 44
2019-04-28 13:00:00 22.4 7 Este 25 Sudeste 0 -- -- 45
2019-04-28 12:00:00 21.4 9 Este 23 Este 0 -- -- 46
2019-04-28 11:00:00 20 6 Este 22 Este 0 -- -- 49
2019-04-28 10:00:00 18.4 9 Nordeste 18 Este 0 -- -- 51
2019-04-28 09:00:00 15.4 8 Este 16 Nordeste 0 -- -- 58
2019-04-28 08:00:00 13.2 3 Este 17 Este 0 -- -- 62
2019-04-28 07:00:00 13.9 7 Este 15 Este 0 -- -- 58
2019-04-28 06:00:00 14 8 Nordeste 15 Este 0 -- -- 58
2019-04-28 05:00:00 14.2 6 Este 11 Nordeste 0 -- -- 57
2019-04-28 04:00:00 15 8 Este 15 Este 0 -- -- 55
2019-04-28 03:00:00 14.4 3 Este 10 Este 0 -- -- 58
2019-04-28 02:00:00 15.8 5 Este 15 Este 0 -- -- 54
2019-04-28 01:00:00 15.7 6 Nordeste 12 Nordeste 0 -- -- 55
2019-04-28 00:00:00 15.8 4 Nordeste 9 Este 0 -- -- 58
2019-04-27 23:00:00 15.2 5 Nordeste 8 Nordeste 0 -- -- 67
2019-04-27 22:00:00 16.6 2 Noroeste 5 Noroeste 0 -- -- 62
2019-04-27 21:00:00 20.6 3 Sudoeste 12 Oeste 0 -- -- 52
2019-04-27 20:00:00 22.1 7 Oeste 14 Noroeste 0 -- -- 48
2019-04-27 19:00:00 22.3 6 Noroeste 14 Sudoeste 0 -- -- 44
2019-04-27 18:00:00 22.2 6 Oeste 17 Sur 0 -- -- 42
2019-04-27 17:00:00 22.2 7 Sur 14 Nordeste 0 -- -- 41
2019-04-27 16:00:00 20.8 7 Noroeste 20 Sudeste 0 -- -- 44
2019-04-27 15:00:00 20.2 8 Este 19 Sudeste 0 -- -- 46
2019-04-27 14:00:00 19.4 7 Este 19 Nordeste 0 -- -- 46
2019-04-27 13:00:00 18.3 6 Este 19 Este 0 -- -- 44
2019-04-27 12:00:00 17.7 8 Este 21 Este 0 -- -- 47
2019-04-27 11:00:00 16.2 6 Este 17 Este 0 -- -- 53
2019-04-27 10:00:00 14.4 7 Este 19 Este 0 -- -- 57
2019-04-27 09:00:00 11.2 6 Este 14 Este 0 -- -- 67
2019-04-27 08:00:00 9.3 5 Este 16 Nordeste 0 -- -- 72
2019-04-27 07:00:00 8.7 4 Este 11 Nordeste 0 -- -- 73
2019-04-27 06:00:00 8.4 4 Este 10 Sudeste 0 -- -- 74
2019-04-27 05:00:00 9.1 4 Nordeste 8 Nordeste 0 -- -- 70
2019-04-27 04:00:00 9.6 4 Nordeste 10 Nordeste 0 -- -- 68
2019-04-27 03:00:00 10.1 5 Este 12 Este 0 -- -- 67
2019-04-27 02:00:00 10.6 5 Nordeste 10 Este 0 -- -- 65
2019-04-27 01:00:00 11.6 8 Norte 11 Norte 0 -- -- 60
2019-04-27 00:00:00 11.7 7 Norte 10 Norte 0 -- -- 61
2019-04-26 23:00:00 11.9 6 Norte 12 Norte 0 -- -- 63
2019-04-26 22:00:00 13.3 6 Norte 15 Noroeste 0 -- -- 56
2019-04-26 21:00:00 15.1 5 Noroeste 13 Noroeste 0 -- -- 52
2019-04-26 20:00:00 16.5 9 Noroeste 17 Noroeste 0 -- -- 48
2019-04-26 19:00:00 17 9 Noroeste 17 Noroeste 0 -- -- 46
2019-04-26 18:00:00 16.8 9 Noroeste 20 Norte 0 -- -- 49
2019-04-26 17:00:00 16.3 11 Noroeste 24 Noroeste 0 -- -- 47
2019-04-26 16:00:00 16.3 8 Oeste 22 Noroeste 0 -- -- 53
2019-04-26 15:00:00 15 10 Oeste 25 Oeste 0 -- -- 53
2019-04-26 14:00:00 14.5 12 Noroeste 21 Noroeste 0 -- -- 61
2019-04-26 13:00:00 13.4 13 Noroeste 26 Oeste 0 -- -- 60
2019-04-26 12:00:00 12.4 11 Noroeste 27 Noroeste 0 -- -- 63
2019-04-26 11:00:00 11.1 11 Noroeste 23 Oeste 0 -- -- 68
2019-04-26 10:00:00 9.5 9 Oeste 19 Oeste 0 -- -- 81
2019-04-26 09:00:00 7.8 10 Oeste 21 Noroeste 0 -- -- 86
2019-04-26 08:00:00 6.1 6 Noroeste 17 Oeste 0 -- -- 94
2019-04-26 07:00:00 5.8 3 Sudoeste 15 Oeste 0 -- -- 95
2019-04-26 06:00:00 5.8 2 Oeste 9 Sudoeste 0 -- -- 93
2019-04-26 05:00:00 6.3 6 Sudoeste 14 Oeste 0 -- -- 89
2019-04-26 04:00:00 7 9 Oeste 18 Oeste 0 -- -- 86
2019-04-26 03:00:00 6.5 14 Oeste 22 Oeste 0 -- -- 87
2019-04-26 02:00:00 7.6 13 Oeste 27 Oeste 0 -- -- 82
2019-04-26 01:00:00 7.4 8 Oeste 26 Oeste 0 -- -- 82
2019-04-26 00:00:00 8.5 18 Oeste 31 Oeste 0 -- -- 78
2019-04-25 23:00:00 7.8 9 Oeste 16 Oeste 0 -- -- 77
2019-04-25 22:00:00 8.7 9 Oeste 32 Oeste 0 -- -- 76
2019-04-25 21:00:00 9.5 13 Oeste 36 Oeste 0 -- -- 82
2019-04-25 20:00:00 11.1 17 Oeste 36 Oeste 0 -- -- 77
2019-04-25 19:00:00 11.8 19 Sudoeste 31 Oeste 0 -- -- 75
2019-04-25 18:00:00 11.3 15 Oeste 31 Oeste 0.2 -- -- 72
2019-04-25 17:00:00 10.4 24 Oeste 43 Noroeste 0 -- -- 75
2019-04-25 16:00:00 10 15 Noroeste 47 Oeste 2 -- -- 86
2019-04-25 15:00:00 11 28 Sudoeste 42 Sudoeste 0 -- -- 78
2019-04-25 14:00:00 11.1 22 Oeste 40 Oeste 0.6 -- -- 75
2019-04-25 13:00:00 11 23 Oeste 40 Sudoeste 0 -- -- 66
2019-04-25 12:00:00 10.4 28 Sudoeste 46 Sudoeste 0 -- -- 70
2019-04-25 11:00:00 9.1 18 Oeste 38 Sudoeste 0 -- -- 88
2019-04-25 10:00:00 8.5 19 Oeste 28 Oeste 0 -- -- 91
2019-04-25 09:00:00 7.9 16 Oeste 23 Oeste 0 -- -- 96
2019-04-25 08:00:00 7.3 12 Oeste 21 Oeste 0 -- -- 93
2019-04-25 07:00:00 7.9 13 Oeste 27 Oeste 0.2 -- -- 96
2019-04-25 06:00:00 8.5 17 Sudoeste 34 Sudoeste 1.2 -- -- 98
2019-04-25 05:00:00 8.7 20 Sudoeste 40 Sudoeste 0 -- -- 98
2019-04-25 04:00:00 8.4 13 Oeste 27 Oeste 0 -- -- 97
2019-04-25 03:00:00 8.8 19 Oeste 31 Oeste 0 -- -- 97
2019-04-25 02:00:00 8.9 17 Oeste 33 Oeste 0 -- -- 96
2019-04-25 01:00:00 10.1 21 Oeste 64 Sudoeste 3.4 -- -- 98
2019-04-25 00:00:00 11.2 27 Sudoeste 51 Sudoeste 1.8 -- -- 98
2019-04-24 23:00:00 10.7 15 Sudoeste 38 Oeste 1 -- -- 96
2019-04-24 22:00:00 11.7 23 Sudoeste 38 Sudoeste 0.2 -- -- 91
2019-04-24 21:00:00 11.6 12 Sudoeste 37 Sudoeste 0 -- -- 96
2019-04-24 20:00:00 11.7 21 Oeste 52 Sudoeste 5.6 -- -- 98
2019-04-24 19:00:00 11.8 29 Sudoeste 45 Sudoeste 0.2 -- -- 97
2019-04-24 18:00:00 12.3 32 Sudoeste 55 Sudoeste 1.2 -- -- 96
2019-04-24 17:00:00 12.3 35 Sudoeste 55 Sudoeste 2.8 -- -- 96
2019-04-24 16:00:00 12.8 33 Sudoeste 54 Sudoeste 1.4 -- -- 94
2019-04-24 15:00:00 12.1 27 Sudoeste 56 Sudoeste 0.6 -- -- 94
2019-04-24 14:00:00 11.9 33 Sudoeste 58 Sudoeste 0 -- -- 88
2019-04-24 13:00:00 10.9 32 Sudoeste 57 Sudoeste 0.2 -- -- 91
2019-04-24 12:00:00 9.9 32 Sudoeste 51 Sudoeste 0.4 -- -- 92
2019-04-24 11:00:00 8.6 28 Sudoeste 41 Sudoeste 1.4 -- -- 96
2019-04-24 10:00:00 7.3 16 Sudoeste 29 Sudoeste 1.6 -- -- 97
2019-04-24 09:00:00 6.7 16 Sudoeste 31 Sudoeste 1 -- -- 97
2019-04-24 08:00:00 6.1 8 Sur 19 Sur 2 -- -- 97
2019-04-24 07:00:00 6.1 8 Sur 24 Sudoeste 0.4 -- -- 96
2019-04-24 06:00:00 5.6 8 Sur 23 Sur 0.2 -- -- 96
2019-04-24 05:00:00 5.5 6 Sur 14 Sur 0 -- -- 95
2019-04-24 04:00:00 5.3 8 Sur 18 Sudoeste 0 -- -- 95
2019-04-24 03:00:00 5.3 8 Oeste 18 Sudoeste 0 -- -- 94
2019-04-24 02:00:00 5.6 11 Sudoeste 21 Sudoeste 0 -- -- 92
2019-04-24 01:00:00 5.7 12 Oeste 28 Sudoeste 0 -- -- 89
2019-04-24 00:00:00 6 14 Oeste 30 Sudoeste 0 -- -- 86